createdAt,value
2022-11-26T00:00:29.454Z,3.33
2022-11-26T00:03:00.435Z,3.27
2022-11-26T00:05:33.736Z,3.80
2022-11-26T00:08:05.263Z,3.57
2022-11-26T00:10:38.284Z,3.03
2022-11-26T00:13:13.933Z,3.10
2022-11-26T00:15:44.543Z,3.33
2022-11-26T00:18:15.170Z,3.00
2022-11-26T00:20:46.936Z,2.70
2022-11-26T00:23:22.143Z,2.53
2022-11-26T00:25:55.798Z,3.23
2022-11-26T00:28:37.231Z,3.10
2022-11-26T00:31:10.382Z,3.03
2022-11-26T00:33:41.270Z,3.47
2022-11-26T00:36:18.060Z,2.77
2022-11-26T00:38:51.294Z,2.67
2022-11-26T00:41:25.205Z,2.90
2022-11-26T00:43:55.784Z,2.50
2022-11-26T00:46:26.408Z,2.73
2022-11-26T00:48:57.019Z,3.07
2022-11-26T00:51:29.166Z,2.77
2022-11-26T00:54:02.948Z,2.17
2022-11-26T00:56:52.121Z,2.57
2022-11-26T00:59:24.511Z,2.43
2022-11-26T01:01:55.166Z,2.60
2022-11-26T01:04:25.843Z,2.47
2022-11-26T01:06:56.492Z,2.57
2022-11-26T01:09:27.059Z,2.27
2022-11-26T01:11:57.571Z,3.07
2022-11-26T01:14:28.187Z,2.50
2022-11-26T01:16:59.899Z,2.30
2022-11-26T01:19:30.490Z,2.27
2022-11-26T01:22:02.199Z,2.50
2022-11-26T01:24:32.835Z,2.50
2022-11-26T01:27:03.440Z,2.67
2022-11-26T01:29:33.998Z,2.40
2022-11-26T01:32:05.127Z,2.90
2022-11-26T01:34:35.870Z,2.40
2022-11-26T01:37:13.471Z,2.40
2022-11-26T01:39:43.978Z,3.00
2022-11-26T01:42:24.862Z,2.83
2022-11-26T01:44:55.481Z,3.07
2022-11-26T01:47:28.040Z,2.77
2022-11-26T01:50:34.221Z,3.03
2022-11-26T01:53:07.767Z,2.50
2022-11-26T01:55:41.281Z,2.60
2022-11-26T01:58:14.564Z,2.90
2022-11-26T02:00:46.075Z,2.70
2022-11-26T02:03:17.034Z,2.20
2022-11-26T02:05:50.829Z,2.57
2022-11-26T02:08:21.894Z,2.60
2022-11-26T02:10:55.049Z,2.63
2022-11-26T02:13:26.799Z,2.50
2022-11-26T02:16:01.842Z,2.30
2022-11-26T02:18:35.483Z,2.83
2022-11-26T02:21:08.966Z,3.30
2022-11-26T02:24:06.639Z,2.47
2022-11-26T02:27:03.328Z,3.03
2022-11-26T02:30:06.906Z,3.00
2022-11-26T02:32:50.933Z,2.50
2022-11-26T02:38:05.460Z,3.10
2022-11-26T02:40:36.410Z,2.60
2022-11-26T02:43:07.070Z,2.70
2022-11-26T02:45:40.378Z,3.10
2022-11-26T02:48:13.875Z,2.50
2022-11-26T02:50:47.761Z,2.93
2022-11-26T02:53:21.523Z,3.83
2022-11-26T02:55:55.029Z,3.87
2022-11-26T02:58:25.548Z,2.70
2022-11-26T03:00:58.724Z,3.40
2022-11-26T03:06:33.940Z,2.67
2022-11-26T03:09:05.376Z,2.30
2022-11-26T03:11:36.230Z,2.37
2022-11-26T03:14:07.067Z,2.27
2022-11-26T03:16:38.258Z,3.27
2022-11-26T03:19:08.968Z,3.00
2022-11-26T03:21:39.540Z,2.77
2022-11-26T03:24:10.764Z,3.20
2022-11-26T03:26:41.318Z,3.33
2022-11-26T03:29:11.895Z,3.43
2022-11-26T03:31:42.545Z,3.30
2022-11-26T03:34:13.146Z,3.13
2022-11-26T03:36:43.732Z,3.50
2022-11-26T03:39:14.403Z,2.70
2022-11-26T03:41:44.955Z,2.93
2022-11-26T03:44:15.944Z,2.43
2022-11-26T03:46:46.869Z,2.80
2022-11-26T03:49:17.435Z,2.70
2022-11-26T03:51:48.181Z,2.70
2022-11-26T03:54:18.751Z,2.03
2022-11-26T03:56:49.377Z,2.57
2022-11-26T03:59:19.955Z,2.83
2022-11-26T04:01:50.811Z,2.97
2022-11-26T04:04:21.459Z,2.63
2022-11-26T04:06:52.127Z,2.70
2022-11-26T04:09:22.689Z,2.40
2022-11-26T04:11:53.352Z,2.13
2022-11-26T04:14:23.931Z,2.77
2022-11-26T04:16:54.516Z,2.90
2022-11-26T04:19:25.258Z,3.30
2022-11-26T04:21:55.826Z,2.60
2022-11-26T04:24:26.354Z,2.73
2022-11-26T04:26:57.030Z,2.13
2022-11-26T04:29:27.610Z,1.90
2022-11-26T04:31:58.219Z,2.17
2022-11-26T04:34:28.809Z,2.63
2022-11-26T04:36:59.399Z,2.13
2022-11-26T04:39:29.943Z,2.33
2022-11-26T04:42:00.567Z,2.80
2022-11-26T04:44:31.151Z,2.67
2022-11-26T04:47:01.718Z,2.37
2022-11-26T04:49:32.508Z,2.07
2022-11-26T04:52:03.143Z,1.83
2022-11-26T04:54:33.817Z,2.00
2022-11-26T04:57:05.037Z,2.50
2022-11-26T04:59:35.629Z,1.83
2022-11-26T05:02:06.274Z,2.43
2022-11-26T05:04:37.134Z,2.00
2022-11-26T05:07:08.325Z,1.90
2022-11-26T05:09:39.089Z,2.27
2022-11-26T05:12:11.373Z,1.90
2022-11-26T05:14:41.983Z,1.97
2022-11-26T05:17:12.547Z,2.20
2022-11-26T05:19:43.078Z,2.03
2022-11-26T05:22:13.656Z,1.80
2022-11-26T05:24:44.514Z,2.77
2022-11-26T05:27:15.562Z,2.13
2022-11-26T05:29:46.256Z,2.40
2022-11-26T05:32:16.846Z,2.07
2022-11-26T05:34:47.508Z,2.17
2022-11-26T05:37:18.139Z,1.80
2022-11-26T05:39:48.702Z,2.03
2022-11-26T05:42:19.329Z,2.20
2022-11-26T05:44:49.939Z,2.40
2022-11-26T05:47:20.532Z,2.17
2022-11-26T05:49:51.110Z,2.10
2022-11-26T05:52:21.834Z,2.10
2022-11-26T05:54:52.583Z,2.90
2022-11-26T05:57:23.253Z,2.60
2022-11-26T05:59:53.828Z,2.27
2022-11-26T06:02:24.514Z,2.33
2022-11-26T06:04:55.402Z,3.00
2022-11-26T06:07:26.481Z,2.83
2022-11-26T06:09:57.173Z,3.23
2022-11-26T06:12:27.797Z,2.40
2022-11-26T06:14:58.452Z,2.47
2022-11-26T06:17:29.094Z,2.67
2022-11-26T06:20:00.121Z,2.00
2022-11-26T06:22:30.759Z,2.50
2022-11-26T06:25:01.478Z,2.30
2022-11-26T06:27:33.634Z,2.70
2022-11-26T06:30:05.507Z,2.60
2022-11-26T06:32:36.506Z,2.50
2022-11-26T06:35:08.416Z,2.53
2022-11-26T06:37:39.092Z,2.50
2022-11-26T06:40:14.694Z,2.50
2022-11-26T06:42:46.749Z,2.27
2022-11-26T06:45:17.523Z,2.47
2022-11-26T06:47:50.074Z,2.20
2022-11-26T06:50:22.784Z,2.97
2022-11-26T06:52:54.628Z,3.13
2022-11-26T06:55:25.359Z,3.07
2022-11-26T06:57:56.099Z,3.00
2022-11-26T07:00:26.847Z,4.83
2022-11-26T07:02:57.970Z,3.10
2022-11-26T07:05:28.960Z,3.13
2022-11-26T07:07:59.617Z,3.50
2022-11-26T07:10:30.878Z,3.60
2022-11-26T07:13:01.562Z,2.90
2022-11-26T07:15:32.350Z,3.30
2022-11-26T07:18:02.975Z,2.53
2022-11-26T07:20:33.658Z,2.90
2022-11-26T07:23:04.804Z,3.50
2022-11-26T07:25:35.464Z,3.00
2022-11-26T07:28:07.169Z,2.50
2022-11-26T07:30:37.839Z,3.20
2022-11-26T07:33:08.504Z,3.77
2022-11-26T07:35:40.143Z,3.67
2022-11-26T07:38:10.720Z,3.10
2022-11-26T07:40:41.351Z,2.90
2022-11-26T07:43:12.043Z,3.10
2022-11-26T07:45:42.785Z,3.37
2022-11-26T07:48:16.821Z,2.70
2022-11-26T07:50:47.361Z,3.23
2022-11-26T07:53:18.106Z,2.70
2022-11-26T07:55:48.754Z,3.47
2022-11-26T07:58:19.410Z,3.23
2022-11-26T08:00:54.440Z,3.67
2022-11-26T08:03:22.223Z,3.67
2022-11-26T08:05:53.011Z,2.40
2022-11-26T08:08:23.555Z,2.60
2022-11-26T08:10:54.219Z,3.10
2022-11-26T08:13:24.808Z,2.93
2022-11-26T08:15:55.459Z,3.17
2022-11-26T08:18:26.134Z,3.00
2022-11-26T08:21:01.318Z,3.10
2022-11-26T08:23:32.942Z,7.57
2022-11-26T08:26:32.598Z,5.00
2022-11-26T08:28:43.402Z,5.30
2022-11-26T08:31:15.795Z,6.87
2022-11-26T08:33:47.065Z,3.90
2022-11-26T08:36:17.735Z,4.70
2022-11-26T08:38:48.308Z,3.60
2022-11-26T08:41:18.904Z,4.37
2022-11-26T08:44:06.733Z,4.00
2022-11-26T08:46:22.993Z,4.37
2022-11-26T08:48:55.738Z,5.60
2022-11-26T08:51:27.204Z,3.90
2022-11-26T08:53:58.192Z,4.60
2022-11-26T08:56:29.549Z,6.70
2022-11-26T08:59:00.743Z,5.73
2022-11-26T09:01:34.295Z,5.73
2022-11-26T09:06:45.837Z,6.67
2022-11-26T09:09:18.112Z,6.80
2022-11-26T09:11:52.079Z,6.90
2022-11-26T09:14:25.588Z,5.33
2022-11-26T09:16:58.571Z,5.63
2022-11-26T09:19:30.815Z,2.60
2022-11-26T09:22:01.725Z,2.87
2022-11-26T09:24:32.766Z,4.33
2022-11-26T09:27:07.790Z,3.40
2022-11-26T09:29:54.503Z,2.83
2022-11-26T09:32:28.240Z,3.10
2022-11-26T09:34:57.506Z,2.83
2022-11-26T09:37:28.041Z,2.57
2022-11-26T09:39:59.136Z,2.33
2022-11-26T09:42:36.883Z,2.27
2022-11-26T09:45:15.130Z,1.97
2022-11-26T09:47:48.115Z,2.30
2022-11-26T09:50:31.400Z,2.27
2022-11-26T09:53:05.500Z,2.40
2022-11-26T09:55:39.011Z,2.00
2022-11-26T09:58:13.111Z,2.00
2022-11-26T10:00:46.451Z,1.97
2022-11-26T10:03:20.422Z,6.47
2022-11-26T10:05:57.982Z,3.33
2022-11-26T10:08:38.885Z,3.60
2022-11-26T10:13:54.469Z,2.67
2022-11-26T10:16:29.263Z,2.87
2022-11-26T10:19:04.962Z,3.57
2022-11-26T10:21:58.211Z,7.73
2022-11-26T10:24:17.355Z,3.00
2022-11-26T10:26:48.340Z,5.87
2022-11-26T10:29:30.558Z,2.50
2022-11-26T10:32:04.265Z,2.30
2022-11-26T10:34:39.914Z,2.20
2022-11-26T10:37:11.424Z,2.20
2022-11-26T10:39:42.009Z,2.27
2022-11-26T10:42:17.212Z,2.47
2022-11-26T10:44:48.877Z,2.10
2022-11-26T10:47:26.309Z,2.57
2022-11-26T10:49:59.106Z,2.40
2022-11-26T10:52:31.965Z,2.50
2022-11-26T10:55:22.475Z,2.53
2022-11-26T10:57:57.571Z,2.20
2022-11-26T11:00:36.049Z,2.47
2022-11-26T11:03:12.017Z,2.00
2022-11-26T11:05:44.612Z,2.30
2022-11-26T11:08:26.028Z,1.87
2022-11-26T11:10:59.145Z,2.23
2022-11-26T11:13:45.255Z,2.47
2022-11-26T11:18:57.335Z,2.40
2022-11-26T11:21:31.562Z,2.20
2022-11-26T11:24:15.809Z,2.00
2022-11-26T11:26:48.377Z,2.20
2022-11-26T11:29:29.429Z,2.67
2022-11-26T11:32:02.337Z,1.97
2022-11-26T11:34:37.833Z,1.83
2022-11-26T11:37:14.800Z,1.77
2022-11-26T11:39:46.569Z,1.60
2022-11-26T11:42:23.600Z,2.10
2022-11-26T11:44:55.479Z,2.43
2022-11-26T11:50:24.954Z,2.27
2022-11-26T11:53:23.182Z,2.37
2022-11-26T11:56:02.733Z,1.83
2022-11-26T11:58:55.830Z,2.10
2022-11-26T12:01:34.139Z,2.60
2022-11-26T12:04:23.551Z,2.67
2022-11-26T12:07:03.789Z,2.43
2022-11-26T12:09:38.290Z,2.07
2022-11-26T12:12:12.045Z,2.30
2022-11-26T12:14:47.608Z,2.20
2022-11-26T12:17:21.234Z,1.93
2022-11-26T12:19:55.081Z,2.23
2022-11-26T12:22:28.822Z,2.17
2022-11-26T12:25:02.323Z,1.93
2022-11-26T12:30:21.016Z,2.13
2022-11-26T12:32:54.875Z,2.00
2022-11-26T12:35:31.469Z,2.53
2022-11-26T12:38:06.368Z,2.20
2022-11-26T12:40:40.338Z,3.77
2022-11-26T12:43:14.611Z,2.70
2022-11-26T12:45:51.630Z,1.80
2022-11-26T12:48:31.998Z,2.07
2022-11-26T12:51:06.871Z,2.67
2022-11-26T12:53:59.828Z,2.17
2022-11-26T12:56:36.190Z,2.20
2022-11-26T13:01:48.494Z,2.10
2022-11-26T13:04:37.325Z,2.00
2022-11-26T13:07:00.624Z,2.30
2022-11-26T13:09:39.321Z,2.37
2022-11-26T13:12:13.579Z,2.07
2022-11-26T13:14:46.630Z,3.20
2022-11-26T13:17:18.975Z,1.80
2022-11-26T13:19:51.885Z,2.30
2022-11-26T13:22:39.463Z,2.40
2022-11-26T13:25:27.716Z,2.10
2022-11-26T13:28:03.186Z,1.87
2022-11-26T13:30:38.283Z,2.20
2022-11-26T13:33:32.222Z,2.00
2022-11-26T13:39:27.423Z,2.50
2022-11-26T13:42:10.858Z,2.63
2022-11-26T13:45:06.603Z,2.00
2022-11-26T13:47:40.001Z,2.07
2022-11-26T13:50:13.991Z,2.20
2022-11-26T13:52:48.127Z,2.10
2022-11-26T13:55:22.644Z,2.57
2022-11-26T13:57:56.178Z,3.00
2022-11-26T14:00:29.329Z,2.20
2022-11-26T14:03:01.099Z,2.60
2022-11-26T14:06:22.036Z,2.27
2022-11-26T14:11:57.142Z,2.77
2022-11-26T14:14:39.209Z,2.87
2022-11-26T14:17:34.906Z,2.80
2022-11-26T14:20:10.369Z,3.07
2022-11-26T14:22:41.393Z,2.77
2022-11-26T14:25:16.934Z,3.10
2022-11-26T14:27:53.720Z,2.93
2022-11-26T14:30:29.172Z,3.67
2022-11-26T14:33:18.690Z,3.27
2022-11-26T14:35:57.478Z,2.77
2022-11-26T14:38:31.647Z,3.53
2022-11-26T14:41:03.225Z,3.10
2022-11-26T14:43:36.560Z,3.17
2022-11-26T14:46:12.695Z,3.80
2022-11-26T14:48:47.461Z,3.43
2022-11-26T14:51:22.680Z,2.97
2022-11-26T14:53:56.833Z,3.33
2022-11-26T14:56:28.986Z,2.57
2022-11-26T14:59:02.643Z,3.37
2022-11-26T15:01:35.020Z,3.00
2022-11-26T15:04:07.930Z,3.23
2022-11-26T15:06:42.252Z,2.23
2022-11-26T15:09:19.259Z,3.10
2022-11-26T15:11:52.520Z,3.30
2022-11-26T15:14:27.359Z,3.40
2022-11-26T15:17:03.353Z,2.70
2022-11-26T15:19:36.775Z,3.07
2022-11-26T15:22:11.196Z,2.80
2022-11-26T15:24:42.427Z,3.23
2022-11-26T15:27:30.723Z,3.33
2022-11-26T15:30:01.396Z,2.73
2022-11-26T15:32:34.641Z,3.57
2022-11-26T15:35:06.323Z,3.20
2022-11-26T15:37:37.189Z,3.13
2022-11-26T15:40:24.231Z,3.77
2022-11-26T15:42:58.589Z,3.37
2022-11-26T15:45:33.705Z,4.03
2022-11-26T15:48:05.752Z,3.50
2022-11-26T15:50:39.272Z,3.30
2022-11-26T15:53:15.915Z,3.13
2022-11-26T15:55:49.341Z,3.30
2022-11-26T15:58:23.569Z,3.83
2022-11-26T16:00:56.808Z,3.60
2022-11-26T16:03:43.489Z,3.80
2022-11-26T16:06:34.689Z,3.70
2022-11-26T16:09:26.169Z,3.83
2022-11-26T16:12:01.059Z,3.87
2022-11-26T16:14:37.264Z,4.17
2022-11-26T16:17:11.276Z,3.93
2022-11-26T16:19:45.636Z,4.00
2022-11-26T16:22:21.748Z,4.30
2022-11-26T16:25:04.622Z,4.63
2022-11-26T16:27:35.911Z,4.87
2022-11-26T16:30:15.449Z,6.80
2022-11-26T16:32:46.063Z,5.60
2022-11-26T16:35:43.725Z,6.27
2022-11-26T16:37:49.069Z,6.03
2022-11-26T16:40:20.840Z,6.33
2022-11-26T16:45:31.564Z,6.60
2022-11-26T16:48:03.137Z,6.67
2022-11-26T16:50:33.712Z,7.43
2022-11-26T16:53:04.283Z,6.90
2022-11-26T16:55:34.984Z,7.10
2022-11-26T16:58:07.179Z,6.87
2022-11-26T17:00:40.024Z,7.23
2022-11-26T17:03:14.302Z,6.03
2022-11-26T17:05:44.703Z,7.00
2022-11-26T17:08:16.301Z,6.10
2022-11-26T17:10:47.920Z,6.27
2022-11-26T17:13:18.760Z,6.30
2022-11-26T17:15:50.667Z,6.90
2022-11-26T17:18:24.003Z,6.70
2022-11-26T17:20:55.266Z,7.33
2022-11-26T17:23:25.969Z,7.47
2022-11-26T17:25:57.345Z,6.47
2022-11-26T17:28:28.219Z,7.73
2022-11-26T17:30:59.547Z,7.43
2022-11-26T17:33:30.267Z,6.63
2022-11-26T17:36:00.898Z,7.57
2022-11-26T17:38:31.501Z,7.77
2022-11-26T17:41:02.122Z,10.37
2022-11-26T17:43:32.675Z,11.37
2022-11-26T17:46:04.993Z,10.10
2022-11-26T17:48:35.655Z,9.80
2022-11-26T17:51:06.363Z,13.23
2022-11-26T17:53:36.982Z,8.77
2022-11-26T17:56:09.715Z,7.70
2022-11-26T17:58:40.501Z,8.30
2022-11-26T18:01:11.119Z,7.57
2022-11-26T18:03:43.002Z,7.67
2022-11-26T18:06:17.434Z,8.43
2022-11-26T18:08:48.688Z,7.73
2022-11-26T18:11:19.241Z,7.17
2022-11-26T18:13:49.878Z,7.30
2022-11-26T18:16:20.605Z,9.20
2022-11-26T18:18:51.298Z,9.43
2022-11-26T18:21:21.862Z,7.47
2022-11-26T18:23:52.751Z,9.03
2022-11-26T18:26:23.417Z,8.87
2022-11-26T18:28:54.046Z,8.53
2022-11-26T18:31:25.117Z,8.83
2022-11-26T18:33:56.262Z,11.30
2022-11-26T18:36:27.240Z,9.27
2022-11-26T18:38:58.423Z,10.17
2022-11-26T18:41:28.978Z,10.37
2022-11-26T18:43:59.688Z,8.63
2022-11-26T18:46:30.623Z,10.97
2022-11-26T18:49:01.287Z,13.50
2022-11-26T18:51:31.803Z,11.30
2022-11-26T18:54:02.574Z,10.53
2022-11-26T18:56:33.181Z,9.93
2022-11-26T18:59:03.702Z,10.93
2022-11-26T19:01:35.033Z,10.77
2022-11-26T19:04:06.586Z,9.37
2022-11-26T19:06:37.320Z,11.30
2022-11-26T19:09:10.343Z,9.00
2022-11-26T19:11:40.943Z,9.67
2022-11-26T19:14:13.075Z,9.93
2022-11-26T19:16:45.047Z,10.03
2022-11-26T19:19:15.693Z,10.67
2022-11-26T19:21:46.609Z,10.63
2022-11-26T19:24:17.349Z,10.77
2022-11-26T19:26:48.093Z,11.03
2022-11-26T19:29:18.999Z,11.93
2022-11-26T19:31:49.606Z,10.63
2022-11-26T19:34:20.478Z,11.93
2022-11-26T19:36:52.663Z,10.83
2022-11-26T19:39:23.677Z,11.27
2022-11-26T19:41:55.608Z,8.87
2022-11-26T19:44:26.460Z,10.20
2022-11-26T19:46:57.484Z,9.60
2022-11-26T19:49:28.662Z,10.90
2022-11-26T19:52:02.188Z,9.83
2022-11-26T19:54:32.890Z,9.13
2022-11-26T19:57:05.176Z,14.97
2022-11-26T19:59:36.433Z,10.03
2022-11-26T20:02:08.667Z,10.40
2022-11-26T20:04:39.717Z,9.33
2022-11-26T20:07:12.827Z,9.57
2022-11-26T20:09:43.950Z,8.67
2022-11-26T20:12:14.605Z,9.13
2022-11-26T20:14:46.255Z,8.90
2022-11-26T20:17:16.961Z,12.57
2022-11-26T20:19:48.584Z,10.83
2022-11-26T20:22:19.361Z,10.00
2022-11-26T20:24:49.951Z,17.03
2022-11-26T20:27:21.022Z,17.93
2022-11-26T20:29:52.076Z,14.37
2022-11-26T20:32:23.141Z,17.27
2022-11-26T20:34:53.899Z,17.80
2022-11-26T20:37:24.590Z,18.93
2022-11-26T20:39:55.151Z,23.00
2022-11-26T20:42:26.072Z,18.60
2022-11-26T20:44:57.195Z,16.07
2022-11-26T20:47:28.444Z,14.17
2022-11-26T20:49:58.984Z,12.13
2022-11-26T20:52:29.541Z,12.73
2022-11-26T20:55:00.364Z,13.83
2022-11-26T20:57:30.885Z,11.93
2022-11-26T21:00:02.985Z,10.50
2022-11-26T21:02:34.085Z,11.43
2022-11-26T21:05:04.863Z,11.40
2022-11-26T21:07:36.597Z,11.53
2022-11-26T21:10:09.311Z,10.50
2022-11-26T21:12:39.983Z,11.77
2022-11-26T21:15:13.086Z,14.43
2022-11-26T21:17:43.682Z,11.60
2022-11-26T21:20:16.609Z,9.90
2022-11-26T21:22:47.140Z,8.73
2022-11-26T21:25:18.064Z,10.70
2022-11-26T21:27:51.741Z,10.60
2022-11-26T21:30:21.075Z,9.57
2022-11-26T21:32:51.675Z,10.53
2022-11-26T21:35:22.419Z,11.57
2022-11-26T21:37:52.960Z,10.10
2022-11-26T21:40:23.563Z,11.37
2022-11-26T21:42:54.080Z,12.17
2022-11-26T21:45:25.400Z,10.43
2022-11-26T21:47:55.970Z,10.67
2022-11-26T21:50:26.494Z,10.40
2022-11-26T21:52:57.015Z,9.90
2022-11-26T21:55:27.783Z,10.57
2022-11-26T21:57:58.382Z,10.43
2022-11-26T22:00:29.206Z,11.30
2022-11-26T22:02:59.833Z,10.37
2022-11-26T22:05:30.428Z,11.70
2022-11-26T22:08:00.981Z,11.80
2022-11-26T22:10:35.984Z,10.03
2022-11-26T22:13:03.798Z,11.63
2022-11-26T22:15:35.616Z,11.83
2022-11-26T22:18:06.404Z,11.47
2022-11-26T22:20:36.922Z,13.03
2022-11-26T22:23:07.964Z,11.60
2022-11-26T22:25:38.592Z,11.47
2022-11-26T22:28:09.113Z,10.97
2022-11-26T22:30:39.822Z,9.20
2022-11-26T22:33:10.385Z,10.23
2022-11-26T22:35:40.973Z,12.13
2022-11-26T22:38:11.620Z,10.23
2022-11-26T22:40:42.148Z,10.97
2022-11-26T22:43:12.666Z,10.93
2022-11-26T22:45:43.275Z,10.70
2022-11-26T22:48:15.040Z,11.80
2022-11-26T22:50:51.864Z,12.70
2022-11-26T22:53:23.094Z,11.87
2022-11-26T22:55:55.378Z,11.73
2022-11-26T22:58:27.430Z,11.47
2022-11-26T23:01:00.308Z,11.23
2022-11-26T23:03:33.203Z,10.47
2022-11-26T23:06:07.750Z,11.80
2022-11-26T23:08:38.935Z,12.87
2022-11-26T23:11:11.358Z,11.67
2022-11-26T23:13:44.199Z,12.53
2022-11-26T23:16:15.349Z,12.20
2022-11-26T23:18:45.943Z,12.03
2022-11-26T23:21:19.587Z,12.93
2022-11-26T23:23:51.164Z,11.53
2022-11-26T23:26:27.154Z,12.80
2022-11-26T23:28:57.325Z,10.97
2022-11-26T23:31:29.785Z,10.93
2022-11-26T23:34:19.219Z,10.73
2022-11-26T23:36:49.882Z,11.03
2022-11-26T23:39:20.538Z,12.07
2022-11-26T23:41:51.079Z,12.67
2022-11-26T23:44:21.868Z,12.70
2022-11-26T23:46:52.454Z,12.43
2022-11-26T23:49:23.650Z,12.57
2022-11-26T23:51:54.233Z,13.10
2022-11-26T23:54:24.862Z,13.07
2022-11-26T23:56:55.381Z,12.57
2022-11-26T23:59:25.936Z,12.50
